createdAt,value
2017-08-07T00:01:48.275Z,102084.99
2017-08-07T00:04:16.632Z,102078.67
2017-08-07T00:06:45.794Z,102079.09
2017-08-07T00:09:14.760Z,102076.53
2017-08-07T00:11:43.133Z,102075.52
2017-08-07T00:14:11.509Z,102074.30
2017-08-07T00:16:40.146Z,102074.05
2017-08-07T00:19:08.585Z,102067.30
2017-08-07T00:21:36.951Z,102070.47
2017-08-07T00:24:05.830Z,102069.26
2017-08-07T00:26:34.191Z,102075.41
2017-08-07T00:29:03.312Z,102073.45
2017-08-07T00:31:31.951Z,102076.61
2017-08-07T00:34:00.300Z,102074.48
2017-08-07T00:36:28.658Z,102069.77
2017-08-07T00:38:57.272Z,102066.70
2017-08-07T00:41:25.624Z,102064.83
2017-08-07T00:43:53.983Z,102064.14
2017-08-07T00:46:22.716Z,102070.54
2017-08-07T00:48:51.104Z,102071.33
2017-08-07T00:51:19.504Z,102068.91
2017-08-07T00:53:48.233Z,102067.98
2017-08-07T00:56:16.595Z,102066.37
2017-08-07T00:58:44.944Z,102071.94
2017-08-07T01:01:13.878Z,102072.59
2017-08-07T01:03:42.225Z,102061.75
2017-08-07T01:06:10.617Z,102062.68
2017-08-07T01:08:39.475Z,102065.58
2017-08-07T01:11:07.871Z,102064.25
2017-08-07T01:13:36.254Z,102054.47
2017-08-07T01:16:05.185Z,102066.87
2017-08-07T01:18:33.580Z,102060.66
2017-08-07T01:21:01.959Z,102054.34
2017-08-07T01:23:30.637Z,102051.16
2017-08-07T01:25:58.996Z,102046.90
2017-08-07T01:28:27.335Z,102055.10
2017-08-07T01:30:56.269Z,102055.06
2017-08-07T01:33:24.613Z,102055.55
2017-08-07T01:35:53.796Z,102055.58
2017-08-07T01:38:22.482Z,102050.36
2017-08-07T01:40:50.880Z,102045.43
2017-08-07T01:43:19.234Z,102056.90
2017-08-07T01:45:48.190Z,102046.70
2017-08-07T01:48:16.559Z,102048.52
2017-08-07T01:50:44.905Z,102049.48
2017-08-07T01:53:13.850Z,102049.85
2017-08-07T01:55:42.210Z,102053.68
2017-08-07T01:58:10.559Z,102047.88
2017-08-07T02:00:39.463Z,102051.95
2017-08-07T02:03:07.868Z,102047.47
2017-08-07T02:05:36.219Z,102046.73
2017-08-07T02:08:04.854Z,102049.34
2017-08-07T02:10:33.627Z,102048.16
2017-08-07T02:13:01.998Z,102040.77
2017-08-07T02:15:31.399Z,102042.12
2017-08-07T02:17:59.751Z,102040.83
2017-08-07T02:20:28.118Z,102036.06
2017-08-07T02:22:56.783Z,102034.48
2017-08-07T02:25:25.180Z,102032.23
2017-08-07T02:27:53.564Z,102041.13
2017-08-07T02:30:22.238Z,102043.92
2017-08-07T02:32:50.664Z,102044.67
2017-08-07T02:35:19.016Z,102033.00
2017-08-07T02:37:47.937Z,102035.81
2017-08-07T02:40:16.310Z,102037.61
2017-08-07T02:42:44.672Z,102044.11
2017-08-07T02:45:13.398Z,102034.72
2017-08-07T02:47:41.747Z,102034.17
2017-08-07T02:50:10.103Z,102033.84
2017-08-07T02:52:38.869Z,102028.23
2017-08-07T02:55:07.253Z,102026.41
2017-08-07T02:57:35.594Z,102031.83
2017-08-07T03:00:04.488Z,102027.45
2017-08-07T03:02:32.837Z,102028.16
2017-08-07T03:05:01.999Z,102025.45
2017-08-07T03:07:30.977Z,102021.59
2017-08-07T03:09:59.337Z,102027.47
2017-08-07T03:12:27.876Z,102027.38
2017-08-07T03:14:56.606Z,102020.86
2017-08-07T03:17:24.947Z,102022.75
2017-08-07T03:19:54.072Z,102021.97
2017-08-07T03:22:22.754Z,102018.33
2017-08-07T03:24:51.102Z,102015.88
2017-08-07T03:27:19.451Z,102015.48
2017-08-07T03:29:48.139Z,102014.52
2017-08-07T03:32:16.500Z,102009.25
2017-08-07T03:34:44.845Z,102010.51
2017-08-07T03:37:13.507Z,102015.23
2017-08-07T03:39:41.876Z,102002.73
2017-08-07T03:42:10.229Z,102006.83
2017-08-07T03:44:39.194Z,102001.72
2017-08-07T03:47:07.540Z,102007.64
2017-08-07T03:49:35.891Z,102004.23
2017-08-07T03:52:04.538Z,102002.13
2017-08-07T03:54:32.896Z,101997.97
2017-08-07T03:57:01.262Z,102008.83
2017-08-07T03:59:30.089Z,102005.20
2017-08-07T04:01:58.446Z,102005.58
2017-08-07T04:04:27.560Z,101996.00
2017-08-07T04:06:56.343Z,102003.09
2017-08-07T04:09:24.690Z,102004.87
2017-08-07T04:11:53.013Z,102010.16
2017-08-07T04:14:21.799Z,102007.62
2017-08-07T04:16:50.135Z,102006.77
2017-08-07T04:19:18.488Z,102009.97
2017-08-07T04:21:47.248Z,102006.69
2017-08-07T04:24:15.653Z,102005.84
2017-08-07T04:26:43.996Z,102013.59
2017-08-07T04:29:12.902Z,102011.79
2017-08-07T04:31:41.248Z,102015.63
2017-08-07T04:34:10.357Z,102000.57
2017-08-07T04:36:39.153Z,102001.97
2017-08-07T04:39:07.521Z,102001.84
2017-08-07T04:41:36.699Z,102003.41
2017-08-07T04:44:05.670Z,101993.58
2017-08-07T04:46:34.045Z,101994.66
2017-08-07T04:49:02.391Z,101987.91
2017-08-07T04:51:31.113Z,101992.05
2017-08-07T04:53:59.538Z,101994.28
2017-08-07T04:56:27.909Z,101990.47
2017-08-07T04:58:56.680Z,101992.74
2017-08-07T05:01:25.037Z,101993.25
2017-08-07T05:03:53.439Z,101991.99
2017-08-07T05:06:22.184Z,101993.48
2017-08-07T05:08:50.521Z,101993.23
2017-08-07T05:11:18.874Z,101991.73
2017-08-07T05:13:47.643Z,101986.80
2017-08-07T05:16:16.024Z,101989.91
2017-08-07T05:18:44.475Z,101992.68
2017-08-07T05:21:13.239Z,101990.25
2017-08-07T05:23:41.637Z,101985.31
2017-08-07T05:26:10.007Z,101994.36
2017-08-07T05:28:38.707Z,101991.76
2017-08-07T05:31:07.158Z,101995.69
2017-08-07T05:33:35.712Z,101990.91
2017-08-07T05:36:04.432Z,101999.36
2017-08-07T05:38:32.790Z,101992.70
2017-08-07T05:41:01.201Z,101994.05
2017-08-07T05:43:30.052Z,101987.80
2017-08-07T05:45:58.422Z,101988.41
2017-08-07T05:48:26.770Z,101983.81
2017-08-07T05:50:55.507Z,101985.56
2017-08-07T05:53:23.886Z,101985.53
2017-08-07T05:55:52.252Z,101986.83
2017-08-07T05:58:21.110Z,101981.55
2017-08-07T06:00:49.463Z,101982.34
2017-08-07T06:03:18.589Z,101978.91
2017-08-07T06:05:47.213Z,101974.50
2017-08-07T06:08:15.590Z,101977.91
2017-08-07T06:10:43.976Z,101980.52
2017-08-07T06:13:12.652Z,101973.85
2017-08-07T06:15:41.071Z,101984.85
2017-08-07T06:18:09.492Z,101982.59
2017-08-07T06:20:38.428Z,101983.65
2017-08-07T06:23:06.783Z,101984.08
2017-08-07T06:25:35.170Z,101985.23
2017-08-07T06:28:03.866Z,101990.08
2017-08-07T06:30:32.199Z,101985.60
2017-08-07T06:33:00.588Z,101976.80
2017-08-07T06:35:29.367Z,101982.48
2017-08-07T06:37:57.722Z,101979.25
2017-08-07T06:40:26.850Z,101976.25
2017-08-07T06:42:55.859Z,101976.70
2017-08-07T06:45:24.241Z,101985.11
2017-08-07T06:47:52.622Z,101976.81
2017-08-07T06:50:21.354Z,101977.16
2017-08-07T06:52:49.773Z,101969.98
2017-08-07T06:55:18.162Z,101975.81
2017-08-07T06:57:46.822Z,101975.61
2017-08-07T07:00:15.205Z,101976.35
2017-08-07T07:02:43.545Z,101967.64
2017-08-07T07:05:12.331Z,101972.53
2017-08-07T07:07:40.747Z,101971.95
2017-08-07T07:10:09.197Z,101974.00
2017-08-07T07:12:37.908Z,101979.28
2017-08-07T07:15:06.312Z,101973.08
2017-08-07T07:17:34.728Z,101968.05
2017-08-07T07:20:03.351Z,101969.00
2017-08-07T07:22:31.729Z,101970.09
2017-08-07T07:25:00.121Z,101967.72
2017-08-07T07:27:28.835Z,101964.98
2017-08-07T07:29:57.423Z,101962.28
2017-08-07T07:32:25.858Z,101957.50
2017-08-07T07:34:54.529Z,101962.59
2017-08-07T07:37:22.924Z,101960.23
2017-08-07T07:39:51.329Z,101962.77
2017-08-07T07:42:20.210Z,101971.05
2017-08-07T07:44:48.594Z,101957.00
2017-08-07T07:47:16.999Z,101956.52
2017-08-07T07:49:45.761Z,101955.00
2017-08-07T07:52:14.182Z,101952.47
2017-08-07T07:54:42.765Z,101949.77
2017-08-07T07:57:11.544Z,101947.84
2017-08-07T07:59:39.917Z,101945.91
2017-08-07T08:02:08.282Z,101943.14
2017-08-07T08:04:37.025Z,101939.02
2017-08-07T08:07:06.140Z,101941.85
2017-08-07T08:09:34.527Z,101938.23
2017-08-07T08:12:03.807Z,101934.98
2017-08-07T08:14:32.225Z,101937.86
2017-08-07T08:17:00.621Z,101940.62
2017-08-07T08:19:29.286Z,101937.89
2017-08-07T08:21:57.735Z,101940.73
2017-08-07T08:24:26.179Z,101940.60
2017-08-07T08:26:54.866Z,101929.14
2017-08-07T08:29:23.260Z,101936.47
2017-08-07T08:31:51.626Z,101929.53
2017-08-07T08:34:20.896Z,101931.00
2017-08-07T08:36:49.354Z,101925.97
2017-08-07T08:39:17.732Z,101933.72
2017-08-07T08:41:46.502Z,101928.34
2017-08-07T08:44:14.874Z,101934.34
2017-08-07T08:46:43.545Z,101922.94
2017-08-07T08:49:13.527Z,101916.84
2017-08-07T08:51:42.577Z,101926.36
2017-08-07T08:54:11.249Z,101919.33
2017-08-07T08:56:40.298Z,101921.64
2017-08-07T08:59:09.603Z,101917.57
2017-08-07T09:01:37.986Z,101910.25
2017-08-07T09:04:06.881Z,101911.98
2017-08-07T09:06:35.264Z,101910.11
2017-08-07T09:09:03.674Z,101911.33
2017-08-07T09:11:32.541Z,101902.58
2017-08-07T09:14:00.914Z,101903.44
2017-08-07T09:16:29.283Z,101903.91
2017-08-07T09:18:58.083Z,101904.62
2017-08-07T09:21:26.430Z,101893.09
2017-08-07T09:23:54.786Z,101887.35
2017-08-07T09:26:23.553Z,101878.05
2017-08-07T09:28:51.924Z,101875.93
2017-08-07T09:31:20.304Z,101872.93
2017-08-07T09:33:48.987Z,101881.94
2017-08-07T09:36:17.368Z,101874.03
2017-08-07T09:38:45.746Z,101868.76
2017-08-07T09:41:15.045Z,101863.27
2017-08-07T09:43:43.423Z,101857.51
2017-08-07T09:46:11.811Z,101861.27
2017-08-07T09:48:40.775Z,101859.52
2017-08-07T09:51:09.173Z,101850.04
2017-08-07T09:53:37.520Z,101851.83
2017-08-07T09:56:06.415Z,101860.56
2017-08-07T09:58:34.838Z,101852.38
2017-08-07T10:01:03.227Z,101860.61
2017-08-07T10:03:32.021Z,101858.05
2017-08-07T10:06:00.412Z,101851.05
2017-08-07T10:08:29.589Z,101849.61
2017-08-07T10:10:58.288Z,101847.50
2017-08-07T10:13:26.672Z,101849.54
2017-08-07T10:15:55.060Z,101847.02
2017-08-07T10:18:23.793Z,101850.43
2017-08-07T10:20:52.174Z,101852.28
2017-08-07T10:23:20.554Z,101840.66
2017-08-07T10:25:49.532Z,101843.53
2017-08-07T10:28:17.943Z,101838.80
2017-08-07T10:30:46.312Z,101848.89
2017-08-07T10:33:15.036Z,101838.41
2017-08-07T10:35:43.440Z,101836.30
2017-08-07T10:38:12.591Z,101836.16
2017-08-07T10:40:41.345Z,101844.00
2017-08-07T10:43:09.754Z,101822.95
2017-08-07T10:45:38.095Z,101825.11
2017-08-07T10:48:13.455Z,101814.68
2017-08-07T10:50:41.819Z,101813.86
2017-08-07T10:53:10.196Z,101820.73
2017-08-07T10:55:38.979Z,101817.84
2017-08-07T10:58:07.364Z,101819.91
2017-08-07T11:00:35.743Z,101817.22
2017-08-07T11:03:04.501Z,101808.10
2017-08-07T11:05:33.645Z,101805.58
2017-08-07T11:08:02.006Z,101810.09
2017-08-07T11:10:30.684Z,101805.20
2017-08-07T11:12:58.997Z,101804.75
2017-08-07T11:15:27.351Z,101805.69
2017-08-07T11:17:56.004Z,101798.08
2017-08-07T11:20:24.356Z,101792.63
2017-08-07T11:22:52.746Z,101794.62
2017-08-07T11:25:21.378Z,101793.37
2017-08-07T11:27:49.731Z,101788.61
2017-08-07T11:30:18.074Z,101792.08
2017-08-07T11:32:47.242Z,101786.72
2017-08-07T11:35:15.623Z,101784.88
2017-08-07T11:37:43.981Z,101787.31
2017-08-07T11:40:12.871Z,101784.63
2017-08-07T11:42:41.247Z,101779.03
2017-08-07T11:45:10.360Z,101774.56
2017-08-07T11:47:39.033Z,101768.50
2017-08-07T11:50:07.451Z,101770.70
2017-08-07T11:52:35.812Z,101768.95
2017-08-07T11:55:04.630Z,101775.38
2017-08-07T11:57:33.020Z,101772.97
2017-08-07T12:00:01.408Z,101761.94
2017-08-07T12:02:30.035Z,101772.58
2017-08-07T12:04:58.371Z,101761.78
2017-08-07T12:07:26.712Z,101760.33
2017-08-07T12:09:55.466Z,101761.70
2017-08-07T12:12:23.839Z,101757.49
2017-08-07T12:14:52.981Z,101756.44
2017-08-07T12:17:21.683Z,101751.48
2017-08-07T12:19:50.065Z,101762.67
2017-08-07T12:22:18.434Z,101750.15
2017-08-07T12:24:47.160Z,101758.22
2017-08-07T12:27:15.555Z,101752.66
2017-08-07T12:29:43.919Z,101738.50
2017-08-07T12:32:12.614Z,101736.72
2017-08-07T12:34:40.981Z,101739.41
2017-08-07T12:37:09.424Z,101737.33
2017-08-07T12:39:38.316Z,101727.95
2017-08-07T12:42:06.666Z,101728.96
2017-08-07T12:44:35.023Z,101721.52
2017-08-07T12:47:03.657Z,101732.03
2017-08-07T12:49:32.024Z,101721.05
2017-08-07T12:52:00.469Z,101726.38
2017-08-07T12:54:29.393Z,101719.75
2017-08-07T12:56:57.765Z,101720.47
2017-08-07T12:59:26.115Z,101721.92
2017-08-07T13:01:55.027Z,101714.58
2017-08-07T13:04:23.383Z,101718.53
2017-08-07T13:06:52.525Z,101712.56
2017-08-07T13:09:21.240Z,101707.48
2017-08-07T13:11:49.597Z,101704.83
2017-08-07T13:14:17.954Z,101704.05
2017-08-07T13:16:46.959Z,101697.85
2017-08-07T13:19:15.358Z,101709.23
2017-08-07T13:21:43.723Z,101705.56
2017-08-07T13:24:12.605Z,101708.67
2017-08-07T13:26:40.967Z,101707.34
2017-08-07T13:29:09.318Z,101707.17
2017-08-07T13:31:38.188Z,101697.37
2017-08-07T13:34:06.538Z,101693.28
2017-08-07T13:36:34.881Z,101701.75
2017-08-07T13:39:04.298Z,101696.22
2017-08-07T13:41:32.676Z,101699.91
2017-08-07T13:44:01.035Z,101700.57
2017-08-07T13:46:29.803Z,101694.11
2017-08-07T13:48:58.200Z,101703.86
2017-08-07T13:51:26.593Z,101688.63
2017-08-07T13:53:55.299Z,101688.76
2017-08-07T13:56:23.677Z,101688.33
2017-08-07T13:58:52.046Z,101688.05
2017-08-07T14:01:20.743Z,101688.30
2017-08-07T14:03:49.106Z,101682.52
2017-08-07T14:06:17.495Z,101681.92
2017-08-07T14:08:46.530Z,101673.91
2017-08-07T14:11:14.908Z,101672.02
2017-08-07T14:13:43.266Z,101675.08
2017-08-07T14:16:11.950Z,101669.80
2017-08-07T14:18:40.301Z,101670.17
2017-08-07T14:21:08.638Z,101665.53
2017-08-07T14:23:37.378Z,101662.75
2017-08-07T14:26:05.752Z,101659.09
2017-08-07T14:28:34.106Z,101654.41
2017-08-07T14:31:03.085Z,101653.84
2017-08-07T14:33:31.455Z,101654.94
2017-08-07T14:35:59.821Z,101649.36
2017-08-07T14:38:28.429Z,101647.94
2017-08-07T14:40:56.774Z,101640.81
2017-08-07T14:43:25.149Z,101640.72
2017-08-07T14:45:53.939Z,101626.09
2017-08-07T14:48:22.345Z,101639.90
2017-08-07T14:50:50.736Z,101630.77
2017-08-07T14:53:19.460Z,101637.08
2017-08-07T14:55:48.653Z,101625.34
2017-08-07T14:58:17.088Z,101625.81
2017-08-07T15:00:46.025Z,101633.66
2017-08-07T15:03:14.378Z,101630.73
2017-08-07T15:05:42.760Z,101631.28
2017-08-07T15:08:11.721Z,101625.77
2017-08-07T15:10:40.078Z,101632.76
2017-08-07T15:13:08.458Z,101618.38
2017-08-07T15:15:37.359Z,101635.06
2017-08-07T15:18:05.708Z,101614.42
2017-08-07T15:20:34.087Z,101606.45
2017-08-07T15:23:02.804Z,101621.71
2017-08-07T15:25:31.156Z,101620.55
2017-08-07T15:27:59.547Z,101622.59
2017-08-07T15:30:28.237Z,101616.80
2017-08-07T15:32:56.608Z,101622.23
2017-08-07T15:35:25.017Z,101618.82
2017-08-07T15:37:54.111Z,101610.61
2017-08-07T15:40:22.493Z,101616.75
2017-08-07T15:42:50.864Z,101611.58
2017-08-07T15:45:19.583Z,101608.20
2017-08-07T15:47:47.944Z,101607.34
2017-08-07T15:50:16.293Z,101605.55
2017-08-07T15:52:45.173Z,101599.17
2017-08-07T15:55:13.501Z,101604.05
2017-08-07T15:57:41.863Z,101602.12
2017-08-07T16:00:10.884Z,101596.25
2017-08-07T16:02:39.282Z,101603.95
2017-08-07T16:05:07.687Z,101597.64
2017-08-07T16:07:36.392Z,101592.95
2017-08-07T16:10:04.776Z,101594.91
2017-08-07T16:12:33.135Z,101593.50
2017-08-07T16:15:01.756Z,101595.06
2017-08-07T16:17:30.140Z,101592.80
2017-08-07T16:19:58.541Z,101589.08
2017-08-07T16:22:27.247Z,101595.61
2017-08-07T16:24:55.606Z,101587.22
2017-08-07T16:27:23.984Z,101584.16
2017-08-07T16:30:02.419Z,101577.19
2017-08-07T16:32:30.857Z,101584.42
2017-08-07T16:34:59.234Z,101582.66
2017-08-07T16:37:28.281Z,101581.40
2017-08-07T16:39:56.715Z,101584.92
2017-08-07T16:42:25.074Z,101579.29
2017-08-07T16:44:53.922Z,101582.79
2017-08-07T16:47:22.272Z,101582.27
2017-08-07T16:49:50.643Z,101579.77
2017-08-07T16:52:19.333Z,101581.09
2017-08-07T16:54:47.681Z,101582.55
2017-08-07T16:57:16.051Z,101584.29
2017-08-07T16:59:45.282Z,101582.37
2017-08-07T17:02:13.660Z,101573.39
2017-08-07T17:04:42.046Z,101572.62
2017-08-07T17:07:10.914Z,101575.14
2017-08-07T17:09:39.277Z,101572.13
2017-08-07T17:12:07.653Z,101566.69
2017-08-07T17:14:36.422Z,101563.75
2017-08-07T17:17:05.551Z,101560.44
2017-08-07T17:19:33.897Z,101559.75
2017-08-07T17:22:02.582Z,101563.86
2017-08-07T17:24:30.924Z,101562.92
2017-08-07T17:26:59.292Z,101565.98
2017-08-07T17:29:28.002Z,101563.98
2017-08-07T17:31:56.343Z,101561.82
2017-08-07T17:34:24.688Z,101566.80
2017-08-07T17:36:53.457Z,101563.05
2017-08-07T17:39:21.801Z,101563.30
2017-08-07T17:41:50.143Z,101563.06
2017-08-07T17:44:19.186Z,101564.30
2017-08-07T17:46:47.546Z,101566.70
2017-08-07T17:49:15.916Z,101567.27
2017-08-07T17:51:44.791Z,101565.84
2017-08-07T17:54:13.166Z,101551.83
2017-08-07T17:56:42.401Z,101560.61
2017-08-07T17:59:11.029Z,101557.88
2017-08-07T18:01:39.392Z,101557.39
2017-08-07T18:04:07.748Z,101558.69
2017-08-07T18:06:36.456Z,101553.44
2017-08-07T18:09:04.805Z,101550.31
2017-08-07T18:11:33.151Z,101554.67
2017-08-07T18:14:02.795Z,101552.18
2017-08-07T18:16:31.162Z,101546.35
2017-08-07T18:18:59.502Z,101543.25
2017-08-07T18:21:28.242Z,101544.41
2017-08-07T18:23:56.595Z,101544.12
2017-08-07T18:26:24.967Z,101551.82
2017-08-07T18:28:53.696Z,101547.80
2017-08-07T18:31:22.046Z,101549.20
2017-08-07T18:33:50.395Z,101550.58
2017-08-07T18:36:19.333Z,101538.23
2017-08-07T18:38:47.745Z,101541.27
2017-08-07T18:41:16.100Z,101544.69
2017-08-07T18:43:44.996Z,101552.19
2017-08-07T18:46:13.361Z,101543.91
2017-08-07T18:48:41.733Z,101548.40
2017-08-07T18:51:10.612Z,101551.56
2017-08-07T18:53:38.949Z,101551.34
2017-08-07T18:56:07.321Z,101553.98
2017-08-07T18:58:36.039Z,101552.89
2017-08-07T19:01:08.690Z,101555.09
2017-08-07T19:03:47.272Z,101558.61
2017-08-07T19:06:15.639Z,101556.33
2017-08-07T19:08:44.079Z,101550.34
2017-08-07T19:11:12.824Z,101549.92
2017-08-07T19:13:41.196Z,101550.42
2017-08-07T19:16:09.596Z,101558.41
2017-08-07T19:18:38.480Z,101558.72
2017-08-07T19:21:06.833Z,101564.41
2017-08-07T19:23:35.245Z,101560.80
2017-08-07T19:26:03.887Z,101563.45
2017-08-07T19:28:32.290Z,101563.44
2017-08-07T19:31:00.670Z,101560.13
2017-08-07T19:33:29.604Z,101562.76
2017-08-07T19:35:57.948Z,101560.09
2017-08-07T19:38:26.351Z,101566.20
2017-08-07T19:40:55.018Z,101560.37
2017-08-07T19:43:23.378Z,101559.70
2017-08-07T19:45:56.981Z,101572.04
2017-08-07T19:48:26.308Z,101568.21
2017-08-07T19:50:54.706Z,101564.22
2017-08-07T19:53:23.584Z,101563.55
2017-08-07T19:55:51.936Z,101564.78
2017-08-07T19:58:20.299Z,101567.72
2017-08-07T20:00:48.965Z,101565.48
2017-08-07T20:03:17.355Z,101562.34
2017-08-07T20:05:45.758Z,101561.77
2017-08-07T20:08:14.645Z,101560.92
2017-08-07T20:10:43.003Z,101555.27
2017-08-07T20:13:12.120Z,101563.34
2017-08-07T20:15:40.861Z,101557.77
2017-08-07T20:18:09.264Z,101549.21
2017-08-07T20:20:37.691Z,101556.73
2017-08-07T20:23:06.581Z,101559.53
2017-08-07T20:25:34.930Z,101552.86
2017-08-07T20:28:04.073Z,101560.76
2017-08-07T20:30:32.862Z,101551.63
2017-08-07T20:33:01.269Z,101553.69
2017-08-07T20:35:29.652Z,101560.65
2017-08-07T20:37:58.503Z,101560.77
2017-08-07T20:40:26.872Z,101554.83
2017-08-07T20:42:55.300Z,101559.58
2017-08-07T20:45:24.959Z,101551.97
2017-08-07T20:47:53.338Z,101558.97
2017-08-07T20:50:21.766Z,101556.55
2017-08-07T20:52:50.627Z,101562.89
2017-08-07T20:55:18.994Z,101558.34
2017-08-07T20:57:47.390Z,101558.38
2017-08-07T21:00:16.222Z,101557.15
2017-08-07T21:02:44.619Z,101558.80
2017-08-07T21:05:13.021Z,101557.70
2017-08-07T21:07:41.925Z,101555.99
2017-08-07T21:10:10.264Z,101554.98
2017-08-07T21:12:38.658Z,101553.63
2017-08-07T21:15:07.404Z,101553.61
2017-08-07T21:17:35.844Z,101559.45
2017-08-07T21:20:04.256Z,101555.83
2017-08-07T21:22:33.242Z,101555.68
2017-08-07T21:25:01.632Z,101552.63
2017-08-07T21:27:30.002Z,101550.85
2017-08-07T21:29:58.665Z,101554.26
2017-08-07T21:32:27.027Z,101558.64
2017-08-07T21:34:55.394Z,101555.34
2017-08-07T21:37:24.091Z,101555.13
2017-08-07T21:39:52.445Z,101552.06
2017-08-07T21:42:20.827Z,101562.37
2017-08-07T21:44:49.864Z,101561.63
2017-08-07T21:47:18.238Z,101560.80
2017-08-07T21:49:46.629Z,101560.48
2017-08-07T21:52:15.290Z,101563.66
2017-08-07T21:54:43.692Z,101559.11
2017-08-07T21:57:12.091Z,101551.38
2017-08-07T21:59:40.851Z,101547.64
2017-08-07T22:02:09.272Z,101551.80
2017-08-07T22:04:37.624Z,101551.48
2017-08-07T22:07:06.702Z,101557.20
2017-08-07T22:09:35.064Z,101557.31
2017-08-07T22:12:03.465Z,101552.09
2017-08-07T22:14:32.117Z,101550.59
2017-08-07T22:17:00.534Z,101554.18
2017-08-07T22:19:28.926Z,101549.94
2017-08-07T22:21:57.782Z,101545.50
2017-08-07T22:24:26.178Z,101548.31
2017-08-07T22:26:54.548Z,101550.77
2017-08-07T22:29:23.429Z,101542.45
2017-08-07T22:31:51.818Z,101545.40
2017-08-07T22:34:20.181Z,101540.66
2017-08-07T22:36:48.906Z,101535.27
2017-08-07T22:39:17.292Z,101533.47
2017-08-07T22:41:45.656Z,101531.38
2017-08-07T22:44:14.539Z,101528.92
2017-08-07T22:46:42.948Z,101530.49
2017-08-07T22:49:11.346Z,101531.75
2017-08-07T22:51:41.225Z,101527.52
2017-08-07T22:54:09.595Z,101518.06
2017-08-07T22:56:38.017Z,101523.31
2017-08-07T22:59:06.756Z,101529.36
2017-08-07T23:01:35.133Z,101522.11
2017-08-07T23:04:03.488Z,101521.39
2017-08-07T23:06:32.167Z,101521.28
2017-08-07T23:09:00.544Z,101526.80
2017-08-07T23:11:28.892Z,101516.53
2017-08-07T23:13:57.764Z,101521.31
2017-08-07T23:16:26.169Z,101519.80
2017-08-07T23:18:54.539Z,101514.31
2017-08-07T23:21:23.219Z,101516.95
2017-08-07T23:23:51.587Z,101513.56
2017-08-07T23:26:19.961Z,101511.70
2017-08-07T23:28:48.842Z,101506.05
2017-08-07T23:31:17.202Z,101506.67
2017-08-07T23:33:45.582Z,101507.95
2017-08-07T23:36:14.292Z,101505.34
2017-08-07T23:38:42.661Z,101511.53
2017-08-07T23:41:11.012Z,101506.33
2017-08-07T23:43:39.735Z,101505.67
2017-08-07T23:46:08.148Z,101496.95
2017-08-07T23:48:36.608Z,101500.64
2017-08-07T23:51:05.379Z,101504.39
2017-08-07T23:53:33.768Z,101494.20
2017-08-07T23:56:02.216Z,101494.11
2017-08-07T23:58:31.111Z,101489.14
